Arrowbear Lake, California
Current Conditions -  °F | °C
As of 12:35 AM on Wednesday 26 Nov 2014 (Local Time) from KL35 Reporting Station
Clear Clear  
Wind Chill:   Ceiling: Unl
Heat Index:   Visibility: 10mi
Dew Point: -8°   Wind: 0mph
Humidity: 55%   Direction: NA
Pressure: 30.54"   Gusts: NA
Location:  34.1964°N, 117.089°W
Report Text: KL35 260835Z AUTO 00000KT 10SM CLR 00/M08 A3054 RMK AO2
Loading
Personal Weather Stations






























Interactive Weather Map New forecast layout! Learn more

10-Day Weather Forecast

Advertisements
Track Severe Weather on mobile